Time;durP1;ratioP1;P1;durP2;ratioP2;P2;SDS_P1;SDS_P2;PMS_P1;PMS_P2;Temp;Humidity;BMP_temperature;BMP_pressure;BME280_temperature;BME280_humidity;BME280_pressure;Samples;Min_cycle;Max_cycle;Signal;HPM_P1;HPM_P2
2021/05/24 00:02:17;;;;;;;6.82;1.70;;;13.30;69.70;;;;;;4990985;28;20521;-90
2021/05/24 00:04:43;;;;;;;6.53;2.10;;;13.20;69.70;;;;;;4973299;28;20060;-89
2021/05/24 00:07:09;;;;;;;5.80;1.63;;;13.20;69.70;;;;;;4973510;28;20041;-90
2021/05/24 00:09:35;;;;;;;8.50;1.80;;;13.20;69.70;;;;;;4991505;28;20381;-89
2021/05/24 00:12:02;;;;;;;5.78;1.85;;;13.20;69.80;;;;;;4975283;28;20169;-89
2021/05/24 00:14:29;;;;;;;5.15;1.60;;;13.20;69.70;;;;;;4976885;28;20421;-89
2021/05/24 00:16:55;;;;;;;3.55;1.73;;;13.20;69.50;;;;;;4977742;28;20026;-90
2021/05/24 00:19:21;;;;;;;7.00;1.60;;;13.20;69.40;;;;;;4977026;28;20030;-89
2021/05/24 00:21:47;;;;;;;4.63;1.65;;;13.30;69.40;;;;;;4977212;28;20378;-90
2021/05/24 00:24:12;;;;;;;5.85;2.15;;;13.30;69.30;;;;;;4976436;28;20042;-89
2021/05/24 00:26:38;;;;;;;3.97;1.55;;;13.30;69.30;;;;;;4976843;28;20093;-91
2021/05/24 00:29:04;;;;;;;6.65;1.50;;;13.20;69.30;;;;;;4976969;28;20577;-90
2021/05/24 00:31:30;;;;;;;6.28;2.05;;;13.20;69.40;;;;;;4976495;28;20074;-89
2021/05/24 00:33:55;;;;;;;7.45;1.60;;;13.20;69.30;;;;;;4975798;28;20403;-90
2021/05/24 00:36:21;;;;;;;5.28;1.85;;;13.20;69.20;;;;;;4976921;28;20391;-90
2021/05/24 00:38:46;;;;;;;4.38;1.50;;;13.20;69.20;;;;;;4976674;28;20031;-89
2021/05/24 00:41:12;;;;;;;6.10;1.70;;;13.20;69.10;;;;;;4976448;28;20023;-90
2021/05/24 00:43:38;;;;;;;6.65;1.63;;;13.20;69.10;;;;;;4993806;28;20026;-89
2021/05/24 00:46:03;;;;;;;3.05;1.50;;;13.20;69.10;;;;;;4993936;28;20030;-90
2021/05/24 00:48:29;;;;;;;5.07;1.60;;;13.20;69.20;;;;;;4976623;28;20077;-89
2021/05/24 00:50:55;;;;;;;4.38;1.60;;;13.10;69.20;;;;;;4976821;28;20081;-87
2021/05/24 00:53:20;;;;;;;4.80;1.45;;;13.10;69.30;;;;;;4976568;28;20037;-89
2021/05/24 00:55:46;;;;;;;3.28;1.42;;;13.10;69.20;;;;;;4975465;28;20425;-90
2021/05/24 00:58:11;;;;;;;5.40;1.40;;;13.10;69.10;;;;;;4976078;28;20057;-89
2021/05/24 01:00:39;;;;;;;6.43;1.70;;;13.10;69.10;;;;;;4975683;28;20045;-90
2021/05/24 01:03:06;;;;;;;7.13;1.65;;;13.10;69.10;;;;;;4976149;28;20393;-89
2021/05/24 01:05:32;;;;;;;5.13;1.90;;;13.10;69.20;;;;;;4975485;28;20042;-90
2021/05/24 01:07:57;;;;;;;3.33;1.50;;;13.00;69.20;;;;;;4976082;28;20045;-91
2021/05/24 01:10:24;;;;;;;4.13;1.50;;;13.00;69.10;;;;;;4975603;28;20042;-90
2021/05/24 01:12:50;;;;;;;4.97;1.60;;;13.00;69.00;;;;;;4975853;28;20039;-89
2021/05/24 01:15:16;;;;;;;7.20;2.00;;;13.00;69.00;;;;;;4993345;28;20037;-90
2021/05/24 01:17:43;;;;;;;5.07;1.58;;;13.00;68.90;;;;;;4975678;28;20031;-90
2021/05/24 01:20:09;;;;;;;5.75;1.67;;;13.00;68.80;;;;;;4975870;28;20026;-91
2021/05/24 01:22:37;;;;;;;5.78;1.50;;;13.00;68.80;;;;;;4975209;28;20030;-89
2021/05/24 01:25:05;;;;;;;6.53;1.45;;;13.00;68.80;;;;;;4993205;28;20026;-89
2021/05/24 01:27:31;;;;;;;5.18;1.48;;;13.00;68.80;;;;;;4974356;28;20035;-90
2021/05/24 01:29:57;;;;;;;6.80;1.38;;;12.90;68.60;;;;;;4957348;28;20038;-90
2021/05/24 01:32:22;;;;;;;6.15;1.52;;;13.00;68.50;;;;;;4974576;28;20596;-89
2021/05/24 01:34:48;;;;;;;9.13;1.80;;;12.90;68.60;;;;;;4956784;28;20118;-89
2021/05/24 01:37:14;;;;;;;5.40;1.50;;;12.90;68.70;;;;;;4970882;28;20026;-88
2021/05/24 01:39:40;;;;;;;6.63;1.60;;;12.90;68.60;;;;;;4975624;28;20383;-90
2021/05/24 01:42:05;;;;;;;5.00;1.38;;;12.80;68.60;;;;;;4993005;28;20033;-89
2021/05/24 01:44:37;;;;;;;3.70;1.25;;;12.90;68.70;;;;;;4975644;28;20030;-89
2021/05/24 01:47:04;;;;;;;5.80;1.73;;;12.90;68.60;;;;;;4974760;28;20070;-88
2021/05/24 01:49:34;;;;;;;7.10;1.40;;;12.90;68.50;;;;;;4975628;28;20030;-90
2021/05/24 01:52:01;;;;;;;6.47;1.55;;;12.80;68.30;;;;;;4975223;28;20298;-89
2021/05/24 01:54:27;;;;;;;4.05;1.50;;;12.90;68.30;;;;;;4974970;28;20478;-90
2021/05/24 01:56:53;;;;;;;3.40;1.48;;;12.90;68.30;;;;;;4974913;28;20102;-90
2021/05/24 01:59:18;;;;;;;6.00;1.52;;;12.80;68.30;;;;;;4975278;28;20121;-90
2021/05/24 02:01:44;;;;;;;5.85;1.40;;;12.80;68.40;;;;;;4975839;28;20104;-89
2021/05/24 02:04:10;;;;;;;8.25;1.38;;;12.80;68.50;;;;;;4975267;28;20041;-89
2021/05/24 02:06:36;;;;;;;5.13;1.40;;;12.80;68.70;;;;;;4974800;28;20031;-88
2021/05/24 02:09:03;;;;;;;4.97;1.63;;;12.80;68.80;;;;;;4975094;28;20099;-90
2021/05/24 02:11:29;;;;;;;4.93;1.70;;;12.70;68.80;;;;;;4974871;28;20038;-90
2021/05/24 02:13:55;;;;;;;6.20;1.50;;;12.80;68.80;;;;;;4974960;28;20026;-89
2021/05/24 02:16:40;;;;;;;8.65;1.55;;;12.70;68.60;;;;;;4975012;28;20031;-88
2021/05/24 02:19:07;;;;;;;4.40;1.40;;;12.70;68.60;;;;;;4992731;28;20031;-90
2021/05/24 02:21:33;;;;;;;4.47;1.30;;;12.70;69.00;;;;;;4975472;28;20037;-88
2021/05/24 02:23:58;;;;;;;4.90;1.73;;;12.70;69.00;;;;;;4975096;28;20397;-90
2021/05/24 02:26:24;;;;;;;5.50;1.60;;;12.70;69.10;;;;;;4992271;28;20039;-90
2021/05/24 02:28:50;;;;;;;6.25;1.30;;;12.70;69.10;;;;;;4974215;28;20030;-88
2021/05/24 02:31:15;;;;;;;5.25;1.50;;;12.70;69.10;;;;;;4973899;28;20522;-89
2021/05/24 02:33:41;;;;;;;4.22;1.27;;;12.60;69.10;;;;;;4973558;28;20038;-89
2021/05/24 02:36:07;;;;;;;4.13;1.20;;;12.70;69.10;;;;;;4974553;28;20378;-89
2021/05/24 02:38:32;;;;;;;4.05;1.33;;;12.70;68.90;;;;;;4974144;28;20030;-89
2021/05/24 02:40:58;;;;;;;6.50;1.42;;;12.70;68.90;;;;;;4974250;28;20030;-89
2021/05/24 02:43:24;;;;;;;3.13;1.48;;;12.70;68.80;;;;;;4973932;28;20030;-90
2021/05/24 02:45:49;;;;;;;5.72;1.30;;;12.70;68.60;;;;;;4974421;28;20065;-89
2021/05/24 02:48:15;;;;;;;4.28;1.25;;;12.70;68.60;;;;;;4973949;28;20543;-88
2021/05/24 02:50:41;;;;;;;6.35;1.50;;;12.70;68.70;;;;;;4975685;28;20033;-88
2021/05/24 02:53:07;;;;;;;5.20;1.30;;;12.70;68.80;;;;;;4977609;28;20034;-89
2021/05/24 02:55:32;;;;;;;5.38;1.30;;;12.70;68.80;;;;;;4994595;28;20029;-88
2021/05/24 02:57:58;;;;;;;4.47;1.55;;;12.70;68.50;;;;;;4994626;28;20062;-90
2021/05/24 03:00:27;;;;;;;5.97;1.48;;;12.70;68.40;;;;;;4976171;28;20026;-89
2021/05/24 03:02:54;;;;;;;6.47;1.50;;;12.70;68.50;;;;;;4982196;28;20069;-88
2021/05/24 03:05:22;;;;;;;8.13;1.40;;;12.70;68.50;;;;;;4984906;28;20058;-90
2021/05/24 03:07:49;;;;;;;4.40;1.20;;;12.70;68.50;;;;;;4984958;28;20030;-89
2021/05/24 03:10:16;;;;;;;4.40;1.40;;;12.70;68.60;;;;;;4984091;28;20026;-88
2021/05/24 03:12:42;;;;;;;6.30;1.48;;;12.70;68.70;;;;;;4991310;28;20038;-89
2021/05/24 03:15:09;;;;;;;5.82;1.30;;;12.70;68.70;;;;;;4977110;28;20021;-90
2021/05/24 03:17:34;;;;;;;6.07;1.23;;;12.70;68.80;;;;;;4975357;28;20380;-89
2021/05/24 03:20:00;;;;;;;4.75;1.20;;;12.70;69.00;;;;;;4977081;28;20037;-89
2021/05/24 03:22:25;;;;;;;3.90;1.17;;;12.70;69.10;;;;;;4975791;28;20037;-89
2021/05/24 03:24:51;;;;;;;5.70;1.45;;;12.60;69.10;;;;;;4993085;28;20026;-89
2021/05/24 03:27:17;;;;;;;4.93;1.60;;;12.60;69.20;;;;;;4973757;28;20489;-89
2021/05/24 03:29:42;;;;;;;4.97;1.17;;;12.70;69.20;;;;;;4973194;28;20057;-87
2021/05/24 03:32:08;;;;;;;5.07;1.10;;;12.70;69.20;;;;;;4973053;28;20026;-89
2021/05/24 03:34:34;;;;;;;4.85;1.20;;;12.70;69.10;;;;;;4973647;28;20057;-90
2021/05/24 03:36:59;;;;;;;4.45;1.33;;;12.70;69.10;;;;;;4991307;28;20022;-89
2021/05/24 03:39:25;;;;;;;6.82;1.40;;;12.70;69.20;;;;;;4973063;28;20032;-88
2021/05/24 03:41:51;;;;;;;5.88;1.30;;;12.70;69.00;;;;;;4973645;28;20034;-89
2021/05/24 03:44:17;;;;;;;3.45;1.30;;;12.70;69.20;;;;;;4973533;28;20023;-88
2021/05/24 03:46:42;;;;;;;5.15;1.38;;;12.70;69.40;;;;;;4975879;28;20030;-89
2021/05/24 03:49:08;;;;;;;4.75;1.17;;;12.70;69.30;;;;;;4977988;28;20730;-90
2021/05/24 03:51:33;;;;;;;5.85;1.40;;;12.70;69.40;;;;;;4994333;28;20055;-90
2021/05/24 03:53:59;;;;;;;3.95;0.85;;;12.70;69.60;;;;;;4977814;28;20022;-89
2021/05/24 03:56:24;;;;;;;6.53;1.13;;;12.70;69.40;;;;;;4995167;28;20330;-88
2021/05/24 03:58:50;;;;;;;4.85;1.23;;;12.70;69.40;;;;;;4977629;28;20489;-90
2021/05/24 04:01:16;;;;;;;5.63;1.25;;;12.70;69.50;;;;;;4977108;28;20429;-89
2021/05/24 04:03:42;;;;;;;4.13;1.20;;;12.70;69.50;;;;;;4977328;28;20037;-88
2021/05/24 04:06:10;;;;;;;4.10;1.20;;;12.80;69.30;;;;;;4994823;28;20030;-89
2021/05/24 04:08:39;;;;;;;6.15;1.10;;;12.80;69.40;;;;;;4977605;28;20183;-90
2021/05/24 04:11:05;;;;;;;2.88;1.00;;;12.80;69.60;;;;;;4977183;28;20056;-89
2021/05/24 04:13:31;;;;;;;3.00;1.30;;;12.70;69.50;;;;;;4976915;28;20584;-89
2021/05/24 04:15:58;;;;;;;7.78;1.20;;;12.80;69.60;;;;;;4977233;28;20035;-89
2021/05/24 04:18:26;;;;;;;5.32;1.10;;;12.80;69.60;;;;;;4977165;28;20018;-89
2021/05/24 04:20:52;;;;;;;5.88;1.77;;;12.80;69.70;;;;;;4977610;28;20030;-90
2021/05/24 04:23:18;;;;;;;4.03;1.05;;;12.80;69.70;;;;;;4977090;28;20137;-90
2021/05/24 04:25:44;;;;;;;3.25;1.20;;;12.70;69.70;;;;;;4976927;28;20037;-89
2021/05/24 04:28:09;;;;;;;4.68;1.15;;;12.70;69.90;;;;;;4994321;28;20030;-89
2021/05/24 04:30:35;;;;;;;2.95;0.88;;;12.70;70.00;;;;;;4976909;28;20034;-91
2021/05/24 04:33:01;;;;;;;7.00;1.25;;;12.70;69.90;;;;;;4976778;28;20084;-89
2021/05/24 04:35:26;;;;;;;4.85;1.08;;;12.70;70.10;;;;;;4977459;28;20037;-90
2021/05/24 04:37:52;;;;;;;5.20;0.95;;;12.70;70.00;;;;;;4976613;28;20030;-88
2021/05/24 04:40:18;;;;;;;5.35;1.00;;;12.60;70.30;;;;;;4976176;28;20022;-90
2021/05/24 04:42:45;;;;;;;3.40;1.00;;;12.70;70.20;;;;;;4976891;28;20030;-90
2021/05/24 04:45:12;;;;;;;3.33;0.90;;;12.70;70.20;;;;;;4976245;28;20074;-90
2021/05/24 04:47:38;;;;;;;3.83;1.20;;;12.70;70.30;;;;;;4976047;28;20073;-90
2021/05/24 04:50:04;;;;;;;7.95;1.40;;;12.70;70.20;;;;;;4975952;28;20120;-90
2021/05/24 04:52:30;;;;;;;8.65;2.17;;;12.60;70.40;;;;;;4976217;28;20027;-90
2021/05/24 04:54:55;;;;;;;3.20;1.23;;;12.60;70.60;;;;;;4994533;28;20030;-89
2021/05/24 04:57:21;;;;;;;5.10;1.25;;;12.70;70.40;;;;;;4975677;28;20038;-92
2021/05/24 04:59:46;;;;;;;4.97;1.20;;;12.70;70.40;;;;;;4976354;28;20030;-90
2021/05/24 05:02:12;;;;;;;4.97;1.10;;;12.70;70.60;;;;;;4976078;28;20538;-89
2021/05/24 05:04:38;;;;;;;2.72;1.30;;;12.70;70.70;;;;;;4994019;28;20478;-89
2021/05/24 05:07:03;;;;;;;3.45;1.08;;;12.70;70.60;;;;;;4976544;28;20036;-90
2021/05/24 05:09:29;;;;;;;4.90;1.10;;;12.70;70.60;;;;;;4976261;28;20034;-90
2021/05/24 05:11:56;;;;;;;3.08;1.10;;;12.80;70.60;;;;;;4993143;28;20504;-89
2021/05/24 05:14:25;;;;;;;3.67;1.20;;;12.80;70.60;;;;;;4975476;28;20498;-89
2021/05/24 05:16:50;;;;;;;;;;;12.80;70.70;;;;;;4976495;28;20026;-89
2021/05/24 05:19:16;;;;;;;4.15;1.13;;;12.90;70.40;;;;;;4976583;28;20251;-90
2021/05/24 05:21:43;;;;;;;5.60;1.30;;;12.90;70.40;;;;;;4993519;28;20105;-89
2021/05/24 05:24:09;;;;;;;4.22;0.98;;;12.90;70.40;;;;;;4975347;28;20522;-89
2021/05/24 05:26:35;;;;;;;3.28;1.00;;;12.90;70.30;;;;;;4976554;28;20056;-91
2021/05/24 05:29:00;;;;;;;5.75;1.10;;;13.00;70.40;;;;;;4977642;28;20402;-90
2021/05/24 05:31:26;;;;;;;2.58;1.13;;;12.90;70.50;;;;;;4976913;28;20018;-91
2021/05/24 05:33:52;;;;;;;4.47;1.08;;;13.00;70.40;;;;;;4977183;28;20499;-90
2021/05/24 05:36:17;;;;;;;4.40;0.93;;;13.00;70.50;;;;;;4977481;28;20022;-91
2021/05/24 05:38:43;;;;;;;3.42;0.90;;;13.00;70.50;;;;;;4977223;28;20433;-90
2021/05/24 05:41:09;;;;;;;4.20;1.08;;;13.10;70.50;;;;;;4977308;28;20022;-90
2021/05/24 05:43:34;;;;;;;5.10;1.23;;;13.10;70.60;;;;;;4976677;28;20026;-91
2021/05/24 05:46:00;;;;;;;2.40;1.17;;;13.10;70.50;;;;;;4976698;28;20030;-91
2021/05/24 05:48:25;;;;;;;3.13;1.20;;;13.10;70.40;;;;;;4977080;28;20037;-90
2021/05/24 05:50:51;;;;;;;4.95;1.20;;;13.20;70.50;;;;;;4976969;28;20405;-91
2021/05/24 05:53:17;;;;;;;3.00;0.93;;;13.20;70.50;;;;;;4976549;28;20033;-92
2021/05/24 05:55:42;;;;;;;5.07;1.10;;;13.30;70.40;;;;;;4976688;28;20369;-90
2021/05/24 05:58:08;;;;;;;3.22;1.20;;;13.30;70.40;;;;;;4976887;28;20033;-90
2021/05/24 06:00:34;;;;;;;7.63;1.15;;;13.40;70.20;;;;;;4976875;28;20022;-90
2021/05/24 06:02:59;;;;;;;2.60;1.02;;;13.40;70.10;;;;;;4977475;28;20034;-90
2021/05/24 06:05:25;;;;;;;4.75;1.00;;;13.40;70.20;;;;;;4979533;28;20084;-90
2021/05/24 06:07:51;;;;;;;4.40;1.20;;;13.50;70.10;;;;;;4981573;28;20038;-92
2021/05/24 06:10:17;;;;;;;6.95;1.20;;;13.50;70.10;;;;;;4995844;28;20034;-92
2021/05/24 06:12:45;;;;;;;3.70;1.00;;;13.50;70.00;;;;;;4984026;28;20560;-90
2021/05/24 06:15:16;;;;;;;5.03;1.08;;;13.60;69.90;;;;;;4976402;28;20034;-92
2021/05/24 06:17:42;;;;;;;3.15;1.10;;;13.60;69.80;;;;;;4976460;28;20117;-91
2021/05/24 06:20:09;;;;;;;5.45;0.95;;;13.60;69.80;;;;;;4976628;28;20463;-90
2021/05/24 06:22:35;;;;;;;5.82;1.27;;;13.70;69.60;;;;;;4976390;28;20030;-90
2021/05/24 06:25:00;;;;;;;5.97;1.35;;;13.60;69.70;;;;;;4976491;28;20093;-90
2021/05/24 06:27:26;;;;;;;2.35;1.05;;;13.70;69.70;;;;;;4976124;28;20077;-91
2021/05/24 06:29:52;;;;;;;2.33;0.82;;;13.70;69.50;;;;;;4976072;28;20066;-91
2021/05/24 06:32:17;;;;;;;3.50;0.88;;;13.80;69.60;;;;;;4975945;28;20106;-91
2021/05/24 06:34:43;;;;;;;7.28;1.10;;;13.90;69.40;;;;;;4976678;28;20371;-90
2021/05/24 06:37:08;;;;;;;5.68;1.00;;;13.90;69.30;;;;;;4976144;28;20054;-91
2021/05/24 06:39:34;;;;;;;3.17;0.98;;;13.90;69.20;;;;;;4976528;28;20493;-91
2021/05/24 06:42:00;;;;;;;4.40;0.90;;;14.00;69.30;;;;;;4976574;28;20030;-90
2021/05/24 06:44:25;;;;;;;3.88;0.90;;;14.10;69.10;;;;;;4991418;28;20033;-91
2021/05/24 06:46:51;;;;;;;3.60;0.90;;;14.20;68.70;;;;;;4992577;28;20042;-91
2021/05/24 06:49:16;;;;;;;4.88;1.00;;;14.40;68.60;;;;;;4976098;28;20478;-90
2021/05/24 06:51:42;;;;;;;3.97;1.10;;;14.50;68.40;;;;;;4975376;28;20037;-91
2021/05/24 06:54:08;;;;;;;4.47;1.05;;;14.60;68.10;;;;;;4977967;28;20035;-90
2021/05/24 06:56:34;;;;;;;3.20;1.23;;;14.70;67.70;;;;;;4977077;28;20047;-91
2021/05/24 06:58:59;;;;;;;5.25;0.80;;;14.80;67.40;;;;;;4976332;28;20030;-90
2021/05/24 07:01:25;;;;;;;2.25;1.00;;;15.00;67.00;;;;;;4975715;28;20030;-91
2021/05/24 07:03:50;;;;;;;6.03;1.10;;;15.10;66.80;;;;;;4975447;28;20042;-90
2021/05/24 07:06:16;;;;;;;6.35;0.98;;;15.10;66.60;;;;;;4975610;28;20034;-90
2021/05/24 07:08:42;;;;;;;4.93;1.02;;;15.30;66.50;;;;;;4975994;28;20035;-90
2021/05/24 07:11:07;;;;;;;5.25;1.45;;;15.40;66.30;;;;;;4977298;28;20027;-90
2021/05/24 07:13:33;;;;;;;3.08;1.00;;;15.50;66.20;;;;;;4975878;28;20125;-90
2021/05/24 07:15:59;;;;;;;4.88;1.10;;;15.60;65.90;;;;;;4975632;28;20030;-90
2021/05/24 07:18:24;;;;;;;4.57;1.00;;;15.70;64.90;;;;;;4978419;28;20580;-91
2021/05/24 07:20:50;;;;;;;3.58;1.02;;;15.80;65.40;;;;;;4995723;28;20054;-91
2021/05/24 07:23:16;;;;;;;3.30;1.10;;;15.90;65.10;;;;;;4986856;28;20034;-90
2021/05/24 07:25:42;;;;;;;3.90;0.95;;;16.00;65.00;;;;;;4975528;28;20035;-91
2021/05/24 07:28:08;;;;;;;5.15;0.80;;;16.10;64.70;;;;;;4974871;28;20042;-91
2021/05/24 07:30:34;;;;;;;5.22;0.90;;;16.10;64.00;;;;;;4974847;28;20030;-90
2021/05/24 07:33:00;;;;;;;5.82;1.10;;;16.20;63.80;;;;;;4975022;28;20049;-91
2021/05/24 07:35:26;;;;;;;5.10;1.05;;;16.30;63.70;;;;;;4974984;28;20564;-90
2021/05/24 07:37:51;;;;;;;4.95;1.35;;;16.40;63.60;;;;;;4975723;28;20030;-90
2021/05/24 07:40:17;;;;;;;5.47;1.52;;;16.50;63.30;;;;;;4987465;28;20093;-91
2021/05/24 07:42:43;;;;;;;4.30;1.38;;;16.60;63.40;;;;;;4979064;28;20096;-90
2021/05/24 07:45:09;;;;;;;5.63;1.10;;;16.70;63.20;;;;;;4975207;28;20094;-91
2021/05/24 07:47:35;;;;;;;3.95;0.90;;;16.70;62.80;;;;;;4975281;28;20037;-91
2021/05/24 07:50:01;;;;;;;3.63;1.02;;;16.80;62.40;;;;;;4975333;28;20077;-90
2021/05/24 07:52:27;;;;;;;3.38;0.77;;;16.90;62.40;;;;;;4975398;28;20037;-91
2021/05/24 07:54:53;;;;;;;4.43;1.00;;;16.90;61.90;;;;;;4982671;28;20022;-91
2021/05/24 07:57:18;;;;;;;4.07;1.00;;;17.00;62.00;;;;;;4992513;28;20070;-91
2021/05/24 07:59:44;;;;;;;5.65;1.00;;;17.10;61.60;;;;;;4997105;28;20026;-91
2021/05/24 08:02:09;;;;;;;3.35;0.73;;;17.20;61.20;;;;;;4974762;28;20026;-90
2021/05/24 08:04:35;;;;;;;5.38;0.88;;;17.30;60.80;;;;;;4974972;28;20038;-91
2021/05/24 08:07:01;;;;;;;7.28;1.85;;;17.30;60.40;;;;;;4974817;28;20504;-91
2021/05/24 08:09:28;;;;;;;4.80;1.15;;;17.40;60.20;;;;;;4974738;28;20123;-91
2021/05/24 08:11:54;;;;;;;4.88;0.90;;;17.50;60.00;;;;;;4974585;28;20030;-90
2021/05/24 08:14:20;;;;;;;3.17;0.80;;;17.60;59.90;;;;;;4974989;28;20482;-92
2021/05/24 08:16:46;;;;;;;9.18;1.25;;;17.70;59.90;;;;;;4975042;28;20105;-91
2021/05/24 08:19:12;;;;;;;5.45;0.90;;;17.80;59.70;;;;;;4975079;28;20037;-91
2021/05/24 08:21:46;;;;;;;5.03;0.90;;;17.90;59.30;;;;;;4974927;28;20490;-91
2021/05/24 08:24:13;;;;;;;3.70;1.20;;;18.00;59.30;;;;;;4975183;28;20115;-91
2021/05/24 08:26:39;;;;;;;3.17;0.70;;;18.00;59.20;;;;;;4974593;28;20022;-91
2021/05/24 08:29:05;;;;;;;2.00;0.70;;;18.10;58.90;;;;;;4974837;28;20042;-91
2021/05/24 08:31:32;;;;;;;2.97;0.90;;;18.20;59.10;;;;;;4974792;28;20026;-90
2021/05/24 08:33:58;;;;;;;2.45;0.63;;;18.30;58.60;;;;;;4977942;28;20375;-92
2021/05/24 08:36:24;;;;;;;3.17;0.70;;;18.40;58.30;;;;;;4978847;28;20073;-91
2021/05/24 08:38:50;;;;;;;4.97;0.75;;;18.50;58.20;;;;;;4979396;28;20344;-91
2021/05/24 08:41:16;;;;;;;5.05;1.00;;;18.60;57.50;;;;;;4978340;28;20109;-91
2021/05/24 08:43:43;;;;;;;4.07;0.88;;;18.70;57.20;;;;;;4979038;28;20038;-91
2021/05/24 08:46:08;;;;;;;4.18;0.80;;;18.80;56.60;;;;;;4979236;28;20390;-91
2021/05/24 08:48:35;;;;;;;5.38;0.90;;;18.90;55.50;;;;;;4979765;28;20027;-91
2021/05/24 08:51:00;;;;;;;3.83;0.93;;;19.00;55.50;;;;;;4979199;28;20081;-91
2021/05/24 08:53:29;;;;;;;7.22;1.00;;;19.10;56.00;;;;;;4979249;28;20486;-91
2021/05/24 08:55:55;;;;;;;;;;;19.20;55.90;;;;;;4977407;28;20068;-91
2021/05/24 08:58:23;;;;;;;7.95;1.00;;;19.20;52.30;;;;;;4978262;28;20114;-91
2021/05/24 09:00:48;;;;;;;3.17;0.70;;;19.20;54.50;;;;;;4977685;28;20033;-91
2021/05/24 09:03:23;;;;;;;5.47;0.80;;;19.20;54.70;;;;;;4977816;28;20030;-91
2021/05/24 09:05:52;;;;;;;2.65;0.80;;;19.10;53.60;;;;;;4978173;28;20037;-91
2021/05/24 09:08:18;;;;;;;4.35;1.10;;;19.10;55.10;;;;;;4978756;28;20026;-91
2021/05/24 09:10:47;;;;;;;2.88;0.65;;;19.10;54.40;;;;;;4978486;28;20528;-91
2021/05/24 09:13:14;;;;;;;;;;;19.20;54.80;;;;;;4978462;28;20026;-91
2021/05/24 09:15:42;;;;;;;4.95;0.70;;;19.30;52.00;;;;;;4978742;28;20004;-91
2021/05/24 09:18:09;;;;;;;3.83;0.70;;;19.40;53.40;;;;;;4978881;28;20029;-90
2021/05/24 09:20:36;;;;;;;3.65;0.75;;;19.40;53.70;;;;;;4977814;28;20022;-91
2021/05/24 09:23:20;;;;;;;5.13;0.90;;;19.50;53.30;;;;;;4978308;28;20176;-91
2021/05/24 09:25:56;;;;;;;5.38;1.10;;;19.60;52.50;;;;;;4993092;28;20030;-89
2021/05/24 09:28:30;;;;;;;4.05;0.80;;;19.70;49.70;;;;;;4977914;28;20565;-91
2021/05/24 09:30:58;;;;;;;4.28;0.82;;;19.80;52.60;;;;;;4976238;28;20034;-89
2021/05/24 09:33:23;;;;;;;2.30;0.80;;;19.80;51.80;;;;;;4975533;28;20034;-90
2021/05/24 09:35:51;;;;;;;3.03;0.73;;;19.80;50.20;;;;;;4976924;28;20029;-91
2021/05/24 09:38:19;;;;;;;2.47;0.95;;;19.70;50.50;;;;;;4977431;28;20533;-91
2021/05/24 09:40:57;;;;;;;4.93;1.00;;;19.60;51.60;;;;;;4977444;28;20497;-91
2021/05/24 09:43:50;;;;;;;4.38;0.68;;;19.60;51.80;;;;;;4977440;28;20027;-91
2021/05/24 09:46:26;;;;;;;4.20;0.82;;;19.60;50.40;;;;;;4976559;28;20030;-91
2021/05/24 09:49:00;;;;;;;3.75;0.73;;;19.70;50.50;;;;;;4977212;28;20098;-91
2021/05/24 09:51:28;;;;;;;5.15;0.77;;;19.80;51.40;;;;;;4977167;28;20030;-92
2021/05/24 09:53:57;;;;;;;4.00;0.70;;;19.80;50.60;;;;;;4977286;28;20018;-91
2021/05/24 09:56:23;;;;;;;2.30;0.70;;;19.90;50.50;;;;;;4977651;28;20138;-91
2021/05/24 09:59:21;;;;;;;1.63;0.60;;;20.00;49.90;;;;;;4977960;28;20030;-91
2021/05/24 10:01:54;;;;;;;6.22;0.98;;;20.10;47.70;;;;;;4969273;28;20042;-92
2021/05/24 10:04:23;;;;;;;5.75;0.95;;;20.10;48.70;;;;;;4977304;28;20058;-91
2021/05/24 10:06:49;;;;;;;5.88;0.90;;;20.00;48.40;;;;;;4977106;28;20494;-92
2021/05/24 10:09:17;;;;;;;6.90;0.98;;;20.00;48.90;;;;;;4977271;28;20038;-92
2021/05/24 10:11:45;;;;;;;3.03;0.70;;;20.10;49.50;;;;;;4977207;28;20037;-91
2021/05/24 10:14:15;;;;;;;2.67;0.80;;;20.10;49.60;;;;;;4976827;28;20030;-91
2021/05/24 10:16:44;;;;;;;4.10;0.77;;;20.20;48.50;;;;;;4976880;28;20117;-92
2021/05/24 10:19:15;;;;;;;;;;;20.10;48.00;;;;;;4977796;28;20497;-91
2021/05/24 10:21:41;;;;;;;4.40;0.75;;;20.00;46.50;;;;;;4976978;28;20017;-91
2021/05/24 10:24:08;;;;;;;4.38;0.80;;;20.00;47.10;;;;;;4976483;28;20026;-91
2021/05/24 10:26:36;;;;;;;7.25;0.88;;;20.10;48.50;;;;;;4976277;28;20023;-92
2021/05/24 10:29:02;;;;;;;3.85;1.15;;;20.20;48.50;;;;;;4976080;28;20025;-91
2021/05/24 10:31:31;;;;;;;5.93;1.10;;;20.30;48.70;;;;;;4976219;28;20038;-91
2021/05/24 10:34:20;;;;;;;;;;;20.40;48.70;;;;;;4976312;28;20023;-91
2021/05/24 10:37:05;;;;;;;2.63;0.80;;;20.40;48.80;;;;;;4965802;28;19913;-92
2021/05/24 10:39:47;;;;;;;3.15;0.80;;;20.50;46.40;;;;;;4976122;28;20026;-91
2021/05/24 10:42:14;;;;;;;6.13;1.10;;;20.40;46.70;;;;;;4976650;28;20058;-92
2021/05/24 10:44:45;;;;;;;4.05;1.10;;;20.30;48.60;;;;;;4976580;28;20394;-91
2021/05/24 10:47:25;;;;;;;3.60;0.70;;;20.20;48.80;;;;;;4976401;28;20030;-92
2021/05/24 10:50:05;;;;;;;4.32;0.80;;;20.10;48.80;;;;;;4976288;28;20498;-91
2021/05/24 10:52:33;;;;;;;6.45;1.10;;;19.90;47.80;;;;;;4976605;28;20052;-91
2021/05/24 10:55:00;;;;;;;5.97;0.80;;;19.90;48.60;;;;;;4976714;28;20027;-91
2021/05/24 10:57:30;;;;;;;3.25;0.80;;;19.70;48.50;;;;;;4975982;28;20050;-92
2021/05/24 10:59:58;;;;;;;4.80;0.95;;;19.70;49.40;;;;;;4975975;28;20023;-92
2021/05/24 11:02:35;;;;;;;2.85;0.63;;;19.70;49.40;;;;;;4975979;28;20416;-92
2021/05/24 11:05:21;;;;;;;5.00;1.10;;;19.60;47.00;;;;;;4976488;28;20382;-91
2021/05/24 11:07:49;;;;;;;2.85;1.00;;;19.60;49.00;;;;;;4977288;28;20022;-91
2021/05/24 11:10:17;;;;;;;5.47;0.95;;;19.70;47.90;;;;;;4977502;28;20026;-93
2021/05/24 11:12:52;;;;;;;5.07;1.42;;;19.70;48.20;;;;;;4977271;28;20041;-92
2021/05/24 11:15:31;;;;;;;1.65;0.88;;;19.70;47.80;;;;;;4977188;28;20027;-92
2021/05/24 11:18:03;;;;;;;;;;;19.70;45.40;;;;;;4976827;28;20018;-92
2021/05/24 11:20:33;;;;;;;4.30;1.00;;;19.60;46.30;;;;;;4976749;28;19909;-91
2021/05/24 11:23:34;;;;;;;2.95;0.73;;;19.60;46.50;;;;;;4976883;28;20022;-91
2021/05/24 11:26:18;;;;;;;3.25;0.70;;;19.50;45.90;;;;;;4976445;28;20529;-90
2021/05/24 11:28:49;;;;;;;2.45;0.77;;;19.40;44.60;;;;;;4974539;28;20034;-91
2021/05/24 11:31:16;;;;;;;6.88;0.82;;;19.40;48.40;;;;;;4991615;28;20106;-91
2021/05/24 11:33:49;;;;;;;3.20;0.70;;;19.30;48.30;;;;;;4970638;28;20268;-90
2021/05/24 11:36:27;;;;;;;6.80;0.95;;;19.30;48.20;;;;;;4971033;28;20023;-90
2021/05/24 11:39:13;;;;;;;2.95;0.60;;;19.30;48.20;;;;;;4971251;28;20117;-90
2021/05/24 11:42:07;;;;;;;3.33;0.70;;;19.20;45.70;;;;;;4973720;28;20023;-92
2021/05/24 11:44:45;;;;;;;2.72;0.80;;;19.20;48.40;;;;;;4975785;28;20050;-89
2021/05/24 11:47:14;;;;;;;6.82;1.13;;;19.20;47.90;;;;;;4978382;28;20073;-89
2021/05/24 11:49:42;;;;;;;3.65;0.80;;;19.10;48.70;;;;;;4979897;28;20030;-91
2021/05/24 11:52:17;;;;;;;2.53;1.02;;;19.00;49.80;;;;;;4999734;28;20026;-90
2021/05/24 11:54:47;;;;;;;3.58;0.90;;;19.00;48.90;;;;;;5014281;28;20065;-89
2021/05/24 11:57:13;;;;;;;4.93;1.33;;;19.00;48.90;;;;;;4997832;28;20054;-89
2021/05/24 11:59:39;;;;;;;3.70;1.10;;;19.00;49.10;;;;;;4997785;28;20058;-88
2021/05/24 12:02:07;;;;;;;4.75;0.93;;;19.00;49.10;;;;;;4993024;28;20050;-89
2021/05/24 12:04:37;;;;;;;6.10;0.88;;;18.90;48.80;;;;;;5013843;28;20026;-89
2021/05/24 12:07:17;;;;;;;4.43;1.02;;;18.80;49.20;;;;;;4999138;28;20042;-89
2021/05/24 12:09:48;;;;;;;4.32;1.13;;;18.80;49.30;;;;;;5001911;28;20126;-89
2021/05/24 12:12:15;;;;;;;4.47;1.15;;;18.80;49.50;;;;;;5018428;28;20014;-88
2021/05/24 12:14:46;;;;;;;4.18;0.85;;;18.80;49.90;;;;;;5000607;28;20014;-89
2021/05/24 12:17:14;;;;;;;3.50;0.70;;;18.80;48.50;;;;;;4995882;28;20023;-90
2021/05/24 12:19:41;;;;;;;4.55;1.10;;;18.70;50.10;;;;;;4979052;28;20030;-90
2021/05/24 12:22:08;;;;;;;4.20;0.98;;;18.80;49.90;;;;;;4994516;28;20158;-88
2021/05/24 12:24:37;;;;;;;3.70;1.25;;;18.70;50.30;;;;;;4977521;28;20109;-89
2021/05/24 12:27:05;;;;;;;9.93;2.50;;;18.70;50.60;;;;;;4977128;28;20029;-91
2021/05/24 12:29:52;;;;;;;17.77;5.95;;;18.70;51.10;;;;;;4994382;28;20019;-90
2021/05/24 12:32:39;;;;;;;9.93;2.42;;;18.80;50.70;;;;;;4975749;28;20113;-89
2021/05/24 12:35:08;;;;;;;9.52;1.90;;;18.70;50.30;;;;;;4994848;28;20367;-91
2021/05/24 12:37:35;;;;;;;6.38;1.42;;;18.70;51.30;;;;;;4976527;28;20117;-90
2021/05/24 12:40:04;;;;;;;7.07;1.10;;;18.70;51.70;;;;;;4973311;28;20022;-90
2021/05/24 12:42:32;;;;;;;4.63;1.27;;;18.70;51.60;;;;;;4963598;28;20034;-89
2021/05/24 12:45:03;;;;;;;7.45;1.33;;;18.70;52.20;;;;;;4976800;28;20030;-90
2021/05/24 12:47:29;;;;;;;9.50;2.70;;;18.60;52.80;;;;;;4976405;28;20035;-90
2021/05/24 12:49:55;;;;;;;8.65;1.30;;;18.60;53.00;;;;;;4976554;28;20069;-90
2021/05/24 12:52:20;;;;;;;4.30;0.95;;;18.60;53.60;;;;;;4975490;28;20030;-90